sensor_id;sensor_type;location;lat;lon;timestamp;pressure;altitude;pressure_sealevel;temperature;humidity
47366;BME280;33105;47.964;7.982;2024-03-17T00:00:29;97384.09;;;7.73;100.00
47366;BME280;33105;47.964;7.982;2024-03-17T00:03:30;97383.19;;;7.79;100.00
47366;BME280;33105;47.964;7.982;2024-03-17T00:06:32;97382.75;;;7.82;100.00
47366;BME280;33105;47.964;7.982;2024-03-17T00:09:34;97381.38;;;7.73;100.00
47366;BME280;33105;47.964;7.982;2024-03-17T00:12:35;97376.69;;;7.80;100.00
47366;BME280;33105;47.964;7.982;2024-03-17T00:15:36;97386.22;;;7.71;100.00
47366;BME280;33105;47.964;7.982;2024-03-17T00:18:37;97378.81;;;7.78;100.00
47366;BME280;33105;47.964;7.982;2024-03-17T00:21:38;97378.63;;;7.61;100.00
47366;BME280;33105;47.964;7.982;2024-03-17T00:24:43;97367.63;;;7.68;100.00
47366;BME280;33105;47.964;7.982;2024-03-17T00:27:45;97372.16;;;7.74;100.00
47366;BME280;33105;47.964;7.982;2024-03-17T00:30:46;97371.09;;;7.75;100.00
47366;BME280;33105;47.964;7.982;2024-03-17T00:33:47;97369.53;;;7.67;100.00
47366;BME280;33105;47.964;7.982;2024-03-17T00:36:49;97364.56;;;7.64;100.00
47366;BME280;33105;47.964;7.982;2024-03-17T00:39:50;97359.69;;;7.84;100.00
47366;BME280;33105;47.964;7.982;2024-03-17T00:42:51;97357.47;;;7.93;100.00
47366;BME280;33105;47.964;7.982;2024-03-17T00:45:55;97356.69;;;7.74;100.00
47366;BME280;33105;47.964;7.982;2024-03-17T00:48:56;97347.75;;;7.67;100.00
47366;BME280;33105;47.964;7.982;2024-03-17T00:51:57;97347.03;;;7.60;100.00
47366;BME280;33105;47.964;7.982;2024-03-17T00:54:58;97341.66;;;7.72;100.00
47366;BME280;33105;47.964;7.982;2024-03-17T00:57:59;97342.09;;;7.69;100.00
47366;BME280;33105;47.964;7.982;2024-03-17T01:01:01;97329.00;;;7.66;100.00
47366;BME280;33105;47.964;7.982;2024-03-17T01:04:02;97331.75;;;7.77;100.00
47366;BME280;33105;47.964;7.982;2024-03-17T01:07:03;97329.72;;;7.73;100.00
47366;BME280;33105;47.964;7.982;2024-03-17T01:10:05;97331.13;;;7.75;100.00
47366;BME280;33105;47.964;7.982;2024-03-17T01:13:09;97312.19;;;7.69;100.00
47366;BME280;33105;47.964;7.982;2024-03-17T01:16:10;97321.78;;;7.71;100.00
47366;BME280;33105;47.964;7.982;2024-03-17T01:19:12;97313.38;;;7.91;100.00
47366;BME280;33105;47.964;7.982;2024-03-17T01:22:13;97312.03;;;7.94;100.00
47366;BME280;33105;47.964;7.982;2024-03-17T01:25:14;97304.84;;;7.88;100.00
47366;BME280;33105;47.964;7.982;2024-03-17T01:28:16;97304.47;;;7.84;100.00
47366;BME280;33105;47.964;7.982;2024-03-17T01:31:18;97295.78;;;7.75;100.00
47366;BME280;33105;47.964;7.982;2024-03-17T01:34:19;97304.69;;;7.82;100.00
47366;BME280;33105;47.964;7.982;2024-03-17T01:37:20;97297.28;;;7.90;100.00
47366;BME280;33105;47.964;7.982;2024-03-17T01:40:21;97293.72;;;7.89;100.00
47366;BME280;33105;47.964;7.982;2024-03-17T01:43:23;97290.25;;;7.82;100.00
47366;BME280;33105;47.964;7.982;2024-03-17T01:46:24;97294.63;;;7.83;100.00
47366;BME280;33105;47.964;7.982;2024-03-17T01:49:26;97288.31;;;7.71;100.00
47366;BME280;33105;47.964;7.982;2024-03-17T01:52:27;97287.13;;;7.67;100.00
47366;BME280;33105;47.964;7.982;2024-03-17T01:55:29;97287.75;;;7.50;100.00
47366;BME280;33105;47.964;7.982;2024-03-17T01:58:30;97279.06;;;7.60;100.00
47366;BME280;33105;47.964;7.982;2024-03-17T02:01:31;97270.16;;;7.53;100.00
47366;BME280;33105;47.964;7.982;2024-03-17T02:04:33;97266.63;;;7.53;100.00
47366;BME280;33105;47.964;7.982;2024-03-17T02:07:35;97263.28;;;7.50;100.00
47366;BME280;33105;47.964;7.982;2024-03-17T02:10:37;97268.50;;;7.52;100.00
47366;BME280;33105;47.964;7.982;2024-03-17T02:13:38;97265.03;;;7.45;100.00
47366;BME280;33105;47.964;7.982;2024-03-17T02:16:40;97263.53;;;7.49;100.00
47366;BME280;33105;47.964;7.982;2024-03-17T02:19:41;97264.03;;;7.58;100.00
47366;BME280;33105;47.964;7.982;2024-03-17T02:22:43;97264.56;;;7.66;100.00
47366;BME280;33105;47.964;7.982;2024-03-17T02:25:44;97258.41;;;7.71;100.00
47366;BME280;33105;47.964;7.982;2024-03-17T02:28:48;97255.91;;;7.69;100.00
47366;BME280;33105;47.964;7.982;2024-03-17T02:31:49;97253.84;;;7.53;100.00
47366;BME280;33105;47.964;7.982;2024-03-17T02:34:50;97247.78;;;7.39;100.00
47366;BME280;33105;47.964;7.982;2024-03-17T02:37:52;97246.13;;;7.38;100.00
47366;BME280;33105;47.964;7.982;2024-03-17T02:40:53;97246.50;;;7.42;100.00
47366;BME280;33105;47.964;7.982;2024-03-17T02:43:54;97257.94;;;7.44;100.00
47366;BME280;33105;47.964;7.982;2024-03-17T02:46:59;97250.50;;;7.39;100.00
47366;BME280;33105;47.964;7.982;2024-03-17T02:50:01;97242.78;;;7.36;100.00
47366;BME280;33105;47.964;7.982;2024-03-17T02:53:02;97235.13;;;7.45;100.00
47366;BME280;33105;47.964;7.982;2024-03-17T02:56:04;97235.25;;;7.38;100.00
47366;BME280;33105;47.964;7.982;2024-03-17T02:59:05;97241.13;;;7.35;100.00
47366;BME280;33105;47.964;7.982;2024-03-17T03:02:07;97228.97;;;7.38;100.00
47366;BME280;33105;47.964;7.982;2024-03-17T03:05:08;97228.97;;;7.38;100.00
47366;BME280;33105;47.964;7.982;2024-03-17T03:08:10;97231.34;;;7.46;100.00
47366;BME280;33105;47.964;7.982;2024-03-17T03:11:11;97228.25;;;7.42;100.00
47366;BME280;33105;47.964;7.982;2024-03-17T03:14:13;97239.75;;;7.44;100.00
47366;BME280;33105;47.964;7.982;2024-03-17T03:17:14;97230.53;;;7.45;100.00
47366;BME280;33105;47.964;7.982;2024-03-17T03:20:15;97240.34;;;7.46;100.00
47366;BME280;33105;47.964;7.982;2024-03-17T03:23:16;97244.34;;;7.44;100.00
47366;BME280;33105;47.964;7.982;2024-03-17T03:26:18;97248.50;;;7.46;100.00
47366;BME280;33105;47.964;7.982;2024-03-17T03:29:19;97250.81;;;7.31;100.00
47366;BME280;33105;47.964;7.982;2024-03-17T03:32:20;97238.41;;;7.35;100.00
47366;BME280;33105;47.964;7.982;2024-03-17T03:35:21;97240.47;;;7.22;100.00
47366;BME280;33105;47.964;7.982;2024-03-17T03:38:23;97242.97;;;7.23;100.00
47366;BME280;33105;47.964;7.982;2024-03-17T03:41:24;97232.03;;;7.11;100.00
47366;BME280;33105;47.964;7.982;2024-03-17T03:44:26;97234.94;;;7.28;100.00
47366;BME280;33105;47.964;7.982;2024-03-17T03:47:27;97235.13;;;7.15;100.00
47366;BME280;33105;47.964;7.982;2024-03-17T03:50:28;97234.91;;;7.16;100.00
47366;BME280;33105;47.964;7.982;2024-03-17T03:53:31;97240.09;;;7.18;100.00
47366;BME280;33105;47.964;7.982;2024-03-17T03:56:33;97232.09;;;7.23;100.00
47366;BME280;33105;47.964;7.982;2024-03-17T03:59:35;97240.56;;;7.15;100.00
47366;BME280;33105;47.964;7.982;2024-03-17T04:02:36;97237.63;;;7.16;100.00
47366;BME280;33105;47.964;7.982;2024-03-17T04:05:37;97233.75;;;7.24;100.00
47366;BME280;33105;47.964;7.982;2024-03-17T04:08:39;97227.63;;;7.29;100.00
47366;BME280;33105;47.964;7.982;2024-03-17T04:11:41;97230.44;;;7.22;100.00
47366;BME280;33105;47.964;7.982;2024-03-17T04:14:42;97232.09;;;7.23;100.00
47366;BME280;33105;47.964;7.982;2024-03-17T04:17:44;97231.84;;;7.25;100.00
47366;BME280;33105;47.964;7.982;2024-03-17T04:20:45;97228.31;;;7.24;100.00
47366;BME280;33105;47.964;7.982;2024-03-17T04:23:47;97224.91;;;7.29;100.00
47366;BME280;33105;47.964;7.982;2024-03-17T04:26:48;97225.97;;;7.28;100.00
47366;BME280;33105;47.964;7.982;2024-03-17T04:29:51;97220.00;;;7.19;100.00
47366;BME280;33105;47.964;7.982;2024-03-17T04:32:53;97233.38;;;7.21;100.00
47366;BME280;33105;47.964;7.982;2024-03-17T04:35:54;97234.66;;;7.18;100.00
47366;BME280;33105;47.964;7.982;2024-03-17T04:38:55;97233.47;;;7.14;100.00
47366;BME280;33105;47.964;7.982;2024-03-17T04:41:56;97239.81;;;7.08;100.00
47366;BME280;33105;47.964;7.982;2024-03-17T04:44:58;97232.78;;;7.00;100.00
47366;BME280;33105;47.964;7.982;2024-03-17T04:47:59;97226.16;;;6.96;100.00
47366;BME280;33105;47.964;7.982;2024-03-17T04:51:00;97223.09;;;6.93;100.00
47366;BME280;33105;47.964;7.982;2024-03-17T04:54:02;97237.13;;;6.90;100.00
47366;BME280;33105;47.964;7.982;2024-03-17T04:57:04;97241.56;;;6.84;100.00
47366;BME280;33105;47.964;7.982;2024-03-17T05:00:06;97242.25;;;6.79;100.00
47366;BME280;33105;47.964;7.982;2024-03-17T05:03:08;97239.22;;;6.69;100.00
47366;BME280;33105;47.964;7.982;2024-03-17T05:06:09;97240.50;;;6.67;100.00
47366;BME280;33105;47.964;7.982;2024-03-17T05:09:10;97234.31;;;6.60;100.00
47366;BME280;33105;47.964;7.982;2024-03-17T05:12:14;97235.81;;;6.56;100.00
47366;BME280;33105;47.964;7.982;2024-03-17T05:15:15;97236.47;;;6.51;100.00
47366;BME280;33105;47.964;7.982;2024-03-17T05:18:16;97236.25;;;6.53;100.00
47366;BME280;33105;47.964;7.982;2024-03-17T05:21:17;97241.91;;;6.51;100.00
47366;BME280;33105;47.964;7.982;2024-03-17T05:24:18;97236.31;;;6.46;100.00
47366;BME280;33105;47.964;7.982;2024-03-17T05:27:20;97225.03;;;6.49;100.00
47366;BME280;33105;47.964;7.982;2024-03-17T05:30:21;97229.72;;;6.42;100.00
47366;BME280;33105;47.964;7.982;2024-03-17T05:33:24;97234.13;;;6.36;100.00
47366;BME280;33105;47.964;7.982;2024-03-17T05:36:26;97230.97;;;6.39;100.00
47366;BME280;33105;47.964;7.982;2024-03-17T05:39:27;97235.97;;;6.42;100.00
47366;BME280;33105;47.964;7.982;2024-03-17T05:42:28;97241.41;;;6.42;100.00
47366;BME280;33105;47.964;7.982;2024-03-17T05:45:31;97252.56;;;6.53;100.00
47366;BME280;33105;47.964;7.982;2024-03-17T05:48:37;97243.75;;;6.57;100.00
47366;BME280;33105;47.964;7.982;2024-03-17T05:51:39;97245.78;;;6.80;100.00
47366;BME280;33105;47.964;7.982;2024-03-17T05:54:40;97246.53;;;6.69;100.00
47366;BME280;33105;47.964;7.982;2024-03-17T05:57:41;97248.72;;;6.60;100.00
47366;BME280;33105;47.964;7.982;2024-03-17T06:00:42;97250.38;;;6.61;100.00
47366;BME280;33105;47.964;7.982;2024-03-17T06:03:44;97250.88;;;6.52;100.00
47366;BME280;33105;47.964;7.982;2024-03-17T06:06:45;97247.88;;;6.60;100.00
47366;BME280;33105;47.964;7.982;2024-03-17T06:09:47;97250.00;;;6.58;100.00
47366;BME280;33105;47.964;7.982;2024-03-17T06:12:48;97243.34;;;6.54;100.00
47366;BME280;33105;47.964;7.982;2024-03-17T06:15:49;97242.00;;;6.63;100.00
47366;BME280;33105;47.964;7.982;2024-03-17T06:18:51;97245.69;;;6.68;100.00
47366;BME280;33105;47.964;7.982;2024-03-17T06:21:52;97241.56;;;6.66;100.00
47366;BME280;33105;47.964;7.982;2024-03-17T06:24:54;97237.53;;;6.68;100.00
47366;BME280;33105;47.964;7.982;2024-03-17T06:27:55;97233.56;;;6.71;100.00
47366;BME280;33105;47.964;7.982;2024-03-17T06:30:58;97235.44;;;6.70;100.00
47366;BME280;33105;47.964;7.982;2024-03-17T06:34:08;97223.91;;;6.75;100.00
47366;BME280;33105;47.964;7.982;2024-03-17T06:37:09;97228.88;;;6.96;100.00
47366;BME280;33105;47.964;7.982;2024-03-17T06:40:13;97231.28;;;7.04;100.00
47366;BME280;33105;47.964;7.982;2024-03-17T06:43:15;97220.38;;;6.93;100.00
47366;BME280;33105;47.964;7.982;2024-03-17T06:46:16;97224.50;;;6.95;100.00
47366;BME280;33105;47.964;7.982;2024-03-17T06:49:18;97231.75;;;7.01;100.00
47366;BME280;33105;47.964;7.982;2024-03-17T06:52:19;97232.56;;;7.02;100.00
47366;BME280;33105;47.964;7.982;2024-03-17T06:55:21;97223.75;;;7.06;100.00
47366;BME280;33105;47.964;7.982;2024-03-17T06:58:23;97230.47;;;6.86;100.00
47366;BME280;33105;47.964;7.982;2024-03-17T07:01:24;97226.59;;;6.93;100.00
47366;BME280;33105;47.964;7.982;2024-03-17T07:04:26;97227.69;;;6.92;100.00
47366;BME280;33105;47.964;7.982;2024-03-17T07:07:27;97229.69;;;6.97;100.00
47366;BME280;33105;47.964;7.982;2024-03-17T07:10:29;97227.91;;;7.09;100.00
47366;BME280;33105;47.964;7.982;2024-03-17T07:16:32;97231.19;;;7.29;100.00
47366;BME280;33105;47.964;7.982;2024-03-17T07:19:34;97237.97;;;7.38;100.00
47366;BME280;33105;47.964;7.982;2024-03-17T07:22:36;97233.66;;;7.61;100.00
47366;BME280;33105;47.964;7.982;2024-03-17T07:25:38;97237.69;;;7.70;100.00
47366;BME280;33105;47.964;7.982;2024-03-17T07:28:39;97237.47;;;7.71;100.00
47366;BME280;33105;47.964;7.982;2024-03-17T07:31:41;97239.78;;;7.98;100.00
47366;BME280;33105;47.964;7.982;2024-03-17T07:34:42;97232.13;;;8.06;100.00
47366;BME280;33105;47.964;7.982;2024-03-17T07:37:43;97232.84;;;8.13;100.00
47366;BME280;33105;47.964;7.982;2024-03-17T07:43:58;97230.94;;;8.02;100.00
47366;BME280;33105;47.964;7.982;2024-03-17T07:47:03;97232.69;;;7.97;100.00
47366;BME280;33105;47.964;7.982;2024-03-17T07:50:05;97237.56;;;8.06;100.00
47366;BME280;33105;47.964;7.982;2024-03-17T07:53:07;97236.72;;;8.06;100.00
47366;BME280;33105;47.964;7.982;2024-03-17T07:56:10;97230.00;;;8.08;100.00
47366;BME280;33105;47.964;7.982;2024-03-17T07:59:11;97230.25;;;8.30;100.00
47366;BME280;33105;47.964;7.982;2024-03-17T08:02:15;97228.97;;;8.44;100.00
47366;BME280;33105;47.964;7.982;2024-03-17T08:05:16;97229.94;;;8.50;100.00
47366;BME280;33105;47.964;7.982;2024-03-17T08:08:17;97235.75;;;8.65;100.00
47366;BME280;33105;47.964;7.982;2024-03-17T08:11:19;97239.03;;;8.67;100.00
47366;BME280;33105;47.964;7.982;2024-03-17T08:14:20;97232.63;;;8.73;100.00
47366;BME280;33105;47.964;7.982;2024-03-17T08:17:21;97229.31;;;8.83;100.00
47366;BME280;33105;47.964;7.982;2024-03-17T08:20:22;97217.59;;;8.82;100.00
47366;BME280;33105;47.964;7.982;2024-03-17T08:23:24;97220.19;;;8.77;100.00
47366;BME280;33105;47.964;7.982;2024-03-17T08:26:25;97210.63;;;8.63;100.00
47366;BME280;33105;47.964;7.982;2024-03-17T08:29:26;97217.16;;;8.62;100.00
47366;BME280;33105;47.964;7.982;2024-03-17T08:32:28;97214.50;;;8.79;100.00
47366;BME280;33105;47.964;7.982;2024-03-17T08:35:29;97224.78;;;9.00;100.00
47366;BME280;33105;47.964;7.982;2024-03-17T08:38:31;97213.31;;;9.27;100.00
47366;BME280;33105;47.964;7.982;2024-03-17T08:41:33;97204.53;;;9.36;100.00
47366;BME280;33105;47.964;7.982;2024-03-17T08:44:34;97202.22;;;9.45;100.00
47366;BME280;33105;47.964;7.982;2024-03-17T08:47:35;97203.88;;;9.46;100.00
47366;BME280;33105;47.964;7.982;2024-03-17T08:50:37;97205.00;;;9.33;100.00
47366;BME280;33105;47.964;7.982;2024-03-17T08:53:38;97195.69;;;9.46;100.00
47366;BME280;33105;47.964;7.982;2024-03-17T08:56:40;97198.66;;;9.44;100.00
47366;BME280;33105;47.964;7.982;2024-03-17T08:59:41;97194.69;;;9.64;100.00
47366;BME280;33105;47.964;7.982;2024-03-17T09:02:43;97197.91;;;9.77;100.00
47366;BME280;33105;47.964;7.982;2024-03-17T09:05:46;97202.91;;;9.52;100.00
47366;BME280;33105;47.964;7.982;2024-03-17T09:08:48;97198.81;;;9.83;100.00
47366;BME280;33105;47.964;7.982;2024-03-17T09:11:49;97199.41;;;10.02;100.00
47366;BME280;33105;47.964;7.982;2024-03-17T09:14:52;97195.81;;;10.30;100.00
47366;BME280;33105;47.964;7.982;2024-03-17T09:17:53;97193.53;;;10.60;100.00
47366;BME280;33105;47.964;7.982;2024-03-17T09:24:03;97193.75;;;10.37;100.00
47366;BME280;33105;47.964;7.982;2024-03-17T09:27:04;97185.50;;;10.53;100.00
47366;BME280;33105;47.964;7.982;2024-03-17T09:30:06;97192.25;;;10.84;100.00
47366;BME280;33105;47.964;7.982;2024-03-17T09:33:10;97190.84;;;10.82;100.00
47366;BME280;33105;47.964;7.982;2024-03-17T09:36:12;97194.13;;;10.62;100.00
47366;BME280;33105;47.964;7.982;2024-03-17T09:39:22;97187.53;;;10.80;100.00
47366;BME280;33105;47.964;7.982;2024-03-17T09:42:26;97182.69;;;10.48;100.00
47366;BME280;33105;47.964;7.982;2024-03-17T09:45:28;97182.88;;;10.80;100.00
47366;BME280;33105;47.964;7.982;2024-03-17T09:48:30;97183.38;;;11.21;100.00
47366;BME280;33105;47.964;7.982;2024-03-17T09:51:38;97187.25;;;11.47;100.00
47366;BME280;33105;47.964;7.982;2024-03-17T09:54:40;97179.56;;;11.22;100.00
47366;BME280;33105;47.964;7.982;2024-03-17T09:57:42;97176.66;;;11.07;100.00
47366;BME280;33105;47.964;7.982;2024-03-17T10:00:43;97173.59;;;11.25;100.00
47366;BME280;33105;47.964;7.982;2024-03-17T10:03:47;97181.69;;;11.37;100.00
47366;BME280;33105;47.964;7.982;2024-03-17T10:07:05;97180.28;;;11.34;100.00
47366;BME280;33105;47.964;7.982;2024-03-17T10:10:13;97182.50;;;10.94;100.00
47366;BME280;33105;47.964;7.982;2024-03-17T10:13:16;97199.28;;;10.80;100.00
47366;BME280;33105;47.964;7.982;2024-03-17T10:16:25;97194.94;;;10.63;100.00
47366;BME280;33105;47.964;7.982;2024-03-17T10:19:27;97194.91;;;10.24;100.00
47366;BME280;33105;47.964;7.982;2024-03-17T10:22:29;97198.50;;;10.46;100.00
47366;BME280;33105;47.964;7.982;2024-03-17T10:25:33;97208.06;;;10.66;100.00
47366;BME280;33105;47.964;7.982;2024-03-17T10:28:34;97205.75;;;10.74;100.00
47366;BME280;33105;47.964;7.982;2024-03-17T10:31:38;97206.69;;;10.63;100.00
47366;BME280;33105;47.964;7.982;2024-03-17T10:34:41;97191.47;;;10.50;100.00
47366;BME280;33105;47.964;7.982;2024-03-17T10:38:02;97198.19;;;10.60;100.00
47366;BME280;33105;47.964;7.982;2024-03-17T10:41:04;97202.13;;;10.69;100.00
47366;BME280;33105;47.964;7.982;2024-03-17T10:44:07;97198.75;;;10.62;100.00
47366;BME280;33105;47.964;7.982;2024-03-17T10:47:25;97202.81;;;10.59;100.00
47366;BME280;33105;47.964;7.982;2024-03-17T10:50:30;97210.06;;;10.70;100.00
47366;BME280;33105;47.964;7.982;2024-03-17T10:53:32;97212.03;;;10.75;100.00
47366;BME280;33105;47.964;7.982;2024-03-17T10:56:33;97214.81;;;10.58;100.00
47366;BME280;33105;47.964;7.982;2024-03-17T10:59:39;97205.06;;;10.45;100.00
47366;BME280;33105;47.964;7.982;2024-03-17T11:02:45;97205.59;;;10.64;100.00
47366;BME280;33105;47.964;7.982;2024-03-17T11:05:48;97204.94;;;10.96;100.00
47366;BME280;33105;47.964;7.982;2024-03-17T11:08:51;97208.06;;;10.82;100.00
47366;BME280;33105;47.964;7.982;2024-03-17T11:11:53;97201.59;;;10.88;100.00
47366;BME280;33105;47.964;7.982;2024-03-17T11:21:24;97187.00;;;11.27;100.00
47366;BME280;33105;47.964;7.982;2024-03-17T11:24:27;97183.63;;;11.41;100.00
47366;BME280;33105;47.964;7.982;2024-03-17T11:28:05;97175.38;;;11.36;100.00
47366;BME280;33105;47.964;7.982;2024-03-17T11:34:48;97176.47;;;11.13;100.00
47366;BME280;33105;47.964;7.982;2024-03-17T11:37:49;97184.53;;;11.25;100.00
47366;BME280;33105;47.964;7.982;2024-03-17T11:45:12;97171.78;;;11.57;100.00
47366;BME280;33105;47.964;7.982;2024-03-17T11:48:47;97171.81;;;11.63;100.00
47366;BME280;33105;47.964;7.982;2024-03-17T11:51:53;97166.75;;;11.49;100.00
47366;BME280;33105;47.964;7.982;2024-03-17T11:54:57;97155.22;;;11.74;100.00
47366;BME280;33105;47.964;7.982;2024-03-17T11:58:21;97151.00;;;11.88;100.00
47366;BME280;33105;47.964;7.982;2024-03-17T12:01:39;97156.94;;;12.07;100.00
47366;BME280;33105;47.964;7.982;2024-03-17T12:04:49;97157.09;;;11.96;100.00
47366;BME280;33105;47.964;7.982;2024-03-17T12:07:53;97151.03;;;11.67;100.00
47366;BME280;33105;47.964;7.982;2024-03-17T12:10:58;97144.50;;;11.41;100.00
47366;BME280;33105;47.964;7.982;2024-03-17T12:14:17;97146.94;;;11.37;100.00
47366;BME280;33105;47.964;7.982;2024-03-17T12:17:26;97145.38;;;11.46;100.00
47366;BME280;33105;47.964;7.982;2024-03-17T12:21:16;97136.03;;;11.42;100.00
47366;BME280;33105;47.964;7.982;2024-03-17T12:24:20;97144.41;;;11.57;100.00
47366;BME280;33105;47.964;7.982;2024-03-17T12:27:27;97143.88;;;11.34;100.00
47366;BME280;33105;47.964;7.982;2024-03-17T12:30:30;97141.78;;;11.19;100.00
47366;BME280;33105;47.964;7.982;2024-03-17T12:33:34;97139.00;;;11.41;100.00
47366;BME280;33105;47.964;7.982;2024-03-17T12:36:53;97126.03;;;11.53;100.00
47366;BME280;33105;47.964;7.982;2024-03-17T12:40:34;97138.88;;;11.52;100.00
47366;BME280;33105;47.964;7.982;2024-03-17T12:47:51;97131.00;;;11.88;100.00
47366;BME280;33105;47.964;7.982;2024-03-17T12:51:59;97123.59;;;11.83;100.00
47366;BME280;33105;47.964;7.982;2024-03-17T12:55:18;97122.50;;;11.84;100.00
47366;BME280;33105;47.964;7.982;2024-03-17T12:59:20;97113.38;;;12.06;100.00
47366;BME280;33105;47.964;7.982;2024-03-17T13:06:44;97109.53;;;11.75;100.00
47366;BME280;33105;47.964;7.982;2024-03-17T13:09:58;97095.19;;;11.63;100.00
47366;BME280;33105;47.964;7.982;2024-03-17T13:13:14;97107.00;;;11.41;100.00
47366;BME280;33105;47.964;7.982;2024-03-17T13:16:19;97094.59;;;11.29;100.00
47366;BME280;33105;47.964;7.982;2024-03-17T13:19:20;97099.13;;;11.45;100.00
47366;BME280;33105;47.964;7.982;2024-03-17T13:22:32;97092.00;;;11.44;100.00
47366;BME280;33105;47.964;7.982;2024-03-17T13:25:36;97088.19;;;11.18;100.00
47366;BME280;33105;47.964;7.982;2024-03-17T13:28:38;97079.06;;;11.34;100.00
47366;BME280;33105;47.964;7.982;2024-03-17T13:31:52;97091.22;;;11.48;100.00
47366;BME280;33105;47.964;7.982;2024-03-17T13:34:56;97074.41;;;11.62;100.00
47366;BME280;33105;47.964;7.982;2024-03-17T13:38:14;97071.16;;;11.70;100.00
47366;BME280;33105;47.964;7.982;2024-03-17T13:41:16;97063.59;;;11.77;100.00
47366;BME280;33105;47.964;7.982;2024-03-17T13:44:18;97054.84;;;11.80;100.00
47366;BME280;33105;47.964;7.982;2024-03-17T13:47:20;97055.34;;;12.09;100.00
47366;BME280;33105;47.964;7.982;2024-03-17T13:50:25;97051.25;;;12.11;100.00
47366;BME280;33105;47.964;7.982;2024-03-17T13:53:26;97052.13;;;12.22;100.00
47366;BME280;33105;47.964;7.982;2024-03-17T13:56:49;97043.97;;;12.32;100.00
47366;BME280;33105;47.964;7.982;2024-03-17T13:59:55;97033.41;;;12.66;100.00
47366;BME280;33105;47.964;7.982;2024-03-17T14:03:04;97047.47;;;12.85;100.00
47366;BME280;33105;47.964;7.982;2024-03-17T14:06:12;97044.94;;;12.68;100.00
47366;BME280;33105;47.964;7.982;2024-03-17T14:09:23;97041.06;;;12.54;100.00
47366;BME280;33105;47.964;7.982;2024-03-17T14:12:35;97030.66;;;12.66;100.00
47366;BME280;33105;47.964;7.982;2024-03-17T14:15:54;97035.22;;;12.35;100.00
47366;BME280;33105;47.964;7.982;2024-03-17T14:18:56;97022.41;;;12.51;100.00
47366;BME280;33105;47.964;7.982;2024-03-17T14:21:57;97020.94;;;13.06;100.00
47366;BME280;33105;47.964;7.982;2024-03-17T14:25:07;97015.09;;;12.77;100.00
47366;BME280;33105;47.964;7.982;2024-03-17T14:28:34;97017.69;;;12.41;100.00
47366;BME280;33105;47.964;7.982;2024-03-17T14:31:53;97022.06;;;12.32;100.00
47366;BME280;33105;47.964;7.982;2024-03-17T14:34:55;97022.25;;;12.20;100.00
47366;BME280;33105;47.964;7.982;2024-03-17T14:38:02;97017.81;;;12.14;100.00
47366;BME280;33105;47.964;7.982;2024-03-17T14:41:15;97025.19;;;12.04;100.00
47366;BME280;33105;47.964;7.982;2024-03-17T14:44:19;97012.28;;;11.99;100.00
47366;BME280;33105;47.964;7.982;2024-03-17T14:47:20;97010.66;;;12.03;100.00
47366;BME280;33105;47.964;7.982;2024-03-17T14:50:28;97004.34;;;12.03;100.00
47366;BME280;33105;47.964;7.982;2024-03-17T14:53:32;97010.16;;;12.16;100.00
47366;BME280;33105;47.964;7.982;2024-03-17T14:56:44;97013.78;;;12.22;100.00
47366;BME280;33105;47.964;7.982;2024-03-17T14:59:57;97002.41;;;12.50;100.00
47366;BME280;33105;47.964;7.982;2024-03-17T15:03:00;97013.56;;;12.39;100.00
47366;BME280;33105;47.964;7.982;2024-03-17T15:06:02;97015.22;;;12.40;100.00
47366;BME280;33105;47.964;7.982;2024-03-17T15:09:06;97024.44;;;12.18;100.00
47366;BME280;33105;47.964;7.982;2024-03-17T15:12:12;97027.38;;;12.07;100.00
47366;BME280;33105;47.964;7.982;2024-03-17T15:15:13;97027.38;;;12.07;100.00
47366;BME280;33105;47.964;7.982;2024-03-17T15:18:15;97015.31;;;12.03;100.00
47366;BME280;33105;47.964;7.982;2024-03-17T15:21:17;97029.03;;;12.08;100.00
47366;BME280;33105;47.964;7.982;2024-03-17T15:24:18;97024.38;;;12.08;100.00
47366;BME280;33105;47.964;7.982;2024-03-17T15:27:41;97017.56;;;12.16;100.00
47366;BME280;33105;47.964;7.982;2024-03-17T15:30:43;97023.81;;;12.06;100.00
47366;BME280;33105;47.964;7.982;2024-03-17T15:33:44;97036.00;;;11.88;100.00
47366;BME280;33105;47.964;7.982;2024-03-17T15:36:47;97036.31;;;11.92;100.00
47366;BME280;33105;47.964;7.982;2024-03-17T15:39:53;97031.75;;;11.71;100.00
47366;BME280;33105;47.964;7.982;2024-03-17T15:42:56;97026.84;;;11.73;100.00
47366;BME280;33105;47.964;7.982;2024-03-17T15:46:05;97023.84;;;11.74;100.00
47366;BME280;33105;47.964;7.982;2024-03-17T15:49:09;97027.88;;;11.62;100.00
47366;BME280;33105;47.964;7.982;2024-03-17T15:52:10;97020.81;;;11.39;100.00
47366;BME280;33105;47.964;7.982;2024-03-17T15:55:12;97017.50;;;11.32;100.00
47366;BME280;33105;47.964;7.982;2024-03-17T15:58:13;97010.94;;;11.33;100.00
47366;BME280;33105;47.964;7.982;2024-03-17T16:01:14;97001.66;;;11.34;100.00
47366;BME280;33105;47.964;7.982;2024-03-17T16:04:16;97006.59;;;11.37;100.00
47366;BME280;33105;47.964;7.982;2024-03-17T16:07:21;97008.00;;;11.44;100.00
47366;BME280;33105;47.964;7.982;2024-03-17T16:10:25;97002.53;;;11.44;100.00
47366;BME280;33105;47.964;7.982;2024-03-17T16:13:33;97005.53;;;11.38;100.00
47366;BME280;33105;47.964;7.982;2024-03-17T16:16:34;96999.22;;;11.37;100.00
47366;BME280;33105;47.964;7.982;2024-03-17T16:19:38;97008.06;;;11.49;100.00
47366;BME280;33105;47.964;7.982;2024-03-17T16:22:41;97001.50;;;11.50;100.00
47366;BME280;33105;47.964;7.982;2024-03-17T16:25:52;97000.47;;;11.56;100.00
47366;BME280;33105;47.964;7.982;2024-03-17T16:29:28;97003.75;;;11.58;100.00
47366;BME280;33105;47.964;7.982;2024-03-17T16:32:53;97000.53;;;11.67;100.00
47366;BME280;33105;47.964;7.982;2024-03-17T16:35:56;96995.56;;;11.64;100.00
47366;BME280;33105;47.964;7.982;2024-03-17T16:38:57;96994.47;;;11.59;100.00
47366;BME280;33105;47.964;7.982;2024-03-17T16:42:00;96997.69;;;11.51;100.00